createdAt,value
2023-04-15T00:02:00.714Z,10.80
2023-04-15T00:04:28.409Z,10.70
2023-04-15T00:06:55.961Z,10.70
2023-04-15T00:09:23.197Z,10.70
2023-04-15T00:11:51.289Z,10.70
2023-04-15T00:14:18.460Z,10.70
2023-04-15T00:16:46.167Z,10.60
2023-04-15T00:19:13.479Z,10.70
2023-04-15T00:21:41.373Z,10.70
2023-04-15T00:24:08.578Z,10.70
2023-04-15T00:26:36.233Z,10.80
2023-04-15T00:29:03.746Z,10.80
2023-04-15T00:31:32.174Z,10.80
2023-04-15T00:33:59.795Z,10.70
2023-04-15T00:36:27.728Z,10.60
2023-04-15T00:38:55.180Z,10.70
2023-04-15T00:41:23.124Z,10.70
2023-04-15T00:43:50.637Z,10.70
2023-04-15T00:46:21.308Z,10.70
2023-04-15T00:48:49.209Z,10.80
2023-04-15T00:51:16.762Z,10.70
2023-04-15T00:53:43.975Z,10.80
2023-04-15T00:56:11.844Z,10.70
2023-04-15T00:58:39.047Z,10.70
2023-04-15T01:01:08.190Z,10.80
2023-04-15T01:03:36.439Z,10.80
2023-04-15T01:06:04.420Z,10.80
2023-04-15T01:08:31.880Z,10.70
2023-04-15T01:11:03.440Z,10.70
2023-04-15T01:13:31.302Z,10.70
2023-04-15T01:15:59.135Z,10.70
2023-04-15T01:18:27.328Z,10.70
2023-04-15T01:20:55.169Z,10.70
2023-04-15T01:23:24.794Z,10.70
2023-04-15T01:25:54.390Z,10.60
2023-04-15T01:28:21.908Z,10.60
2023-04-15T01:30:49.372Z,10.50
2023-04-15T01:33:16.922Z,10.50
2023-04-15T01:36:07.205Z,10.50
2023-04-15T01:38:34.830Z,10.60
2023-04-15T01:41:04.294Z,10.50
2023-04-15T01:43:33.126Z,10.50
2023-04-15T01:46:02.156Z,10.50
2023-04-15T01:48:32.368Z,10.50
2023-04-15T01:51:01.423Z,10.50
2023-04-15T01:53:30.072Z,10.50
2023-04-15T01:55:58.818Z,10.50
2023-04-15T01:58:27.369Z,10.40
2023-04-15T02:00:57.128Z,10.40
2023-04-15T02:03:26.110Z,10.40
2023-04-15T02:05:55.170Z,10.50
2023-04-15T02:08:23.707Z,10.40
2023-04-15T02:10:52.808Z,10.40
2023-04-15T02:13:21.328Z,10.30
2023-04-15T02:15:52.647Z,10.40
2023-04-15T02:18:21.715Z,10.40
2023-04-15T02:20:52.576Z,10.40
2023-04-15T02:23:21.241Z,10.30
2023-04-15T02:25:53.886Z,10.30
2023-04-15T02:28:22.787Z,10.30
2023-04-15T02:30:53.480Z,10.30
2023-04-15T02:33:22.411Z,10.40
2023-04-15T02:35:51.437Z,10.30
2023-04-15T02:38:19.889Z,10.30
2023-04-15T02:40:50.424Z,10.20
2023-04-15T02:43:19.127Z,10.20
2023-04-15T02:45:48.568Z,10.20
2023-04-15T02:48:19.523Z,10.20
2023-04-15T02:50:48.356Z,10.10
2023-04-15T02:53:19.909Z,10.10
2023-04-15T02:55:48.779Z,10.20
2023-04-15T02:58:17.276Z,10.10
2023-04-15T03:00:45.993Z,10.10
2023-04-15T03:03:15.418Z,10.00
2023-04-15T03:05:44.785Z,10.10
2023-04-15T03:08:14.752Z,10.10
2023-04-15T03:10:43.456Z,10.10
2023-04-15T03:13:11.942Z,10.10
2023-04-15T03:15:42.804Z,10.00
2023-04-15T03:18:11.879Z,10.10
2023-04-15T03:20:42.498Z,10.10
2023-04-15T03:23:11.200Z,10.00
2023-04-15T03:25:39.922Z,10.00
2023-04-15T03:28:09.379Z,10.10
2023-04-15T03:30:38.214Z,10.00
2023-04-15T03:33:07.032Z,10.00
2023-04-15T03:35:35.931Z,10.00
2023-04-15T03:38:04.335Z,10.00
2023-04-15T03:40:33.048Z,10.00
2023-04-15T03:43:01.793Z,10.00
2023-04-15T03:45:30.968Z,10.00
2023-04-15T03:48:15.605Z,10.10
2023-04-15T03:50:45.517Z,10.00
2023-04-15T03:53:14.696Z,10.00
2023-04-15T03:55:43.669Z,10.00
2023-04-15T03:58:13.062Z,10.00
2023-04-15T04:00:42.513Z,10.00
2023-04-15T04:03:11.991Z,10.00
2023-04-15T04:05:41.656Z,10.00
2023-04-15T04:08:10.377Z,10.00
2023-04-15T04:10:39.280Z,10.10
2023-04-15T04:13:07.907Z,10.00
2023-04-15T04:15:36.686Z,10.00
2023-04-15T04:18:05.206Z,10.00
2023-04-15T04:20:34.395Z,10.00
2023-04-15T04:23:02.850Z,10.00
2023-04-15T04:25:32.233Z,10.00
2023-04-15T04:28:00.670Z,10.00
2023-04-15T04:30:29.962Z,10.00
2023-04-15T04:32:58.576Z,10.00
2023-04-15T04:35:28.395Z,10.00
2023-04-15T04:37:57.278Z,10.10
2023-04-15T04:40:25.979Z,10.20
2023-04-15T04:42:54.602Z,10.20
2023-04-15T04:45:23.652Z,10.20
2023-04-15T04:47:52.189Z,10.30
2023-04-15T04:50:21.389Z,10.30
2023-04-15T04:52:49.794Z,10.20
2023-04-15T04:55:18.704Z,10.20
2023-04-15T04:57:47.474Z,10.30
2023-04-15T05:00:16.313Z,10.20
2023-04-15T05:02:45.245Z,10.20
2023-04-15T05:05:13.987Z,10.20
2023-04-15T05:07:42.507Z,10.10
2023-04-15T05:10:11.482Z,10.00
2023-04-15T05:12:39.989Z,10.10
2023-04-15T05:15:10.137Z,10.10
2023-04-15T05:17:38.692Z,10.20
2023-04-15T05:20:08.226Z,10.20
2023-04-15T05:22:37.338Z,10.20
2023-04-15T05:25:06.461Z,10.10
2023-04-15T05:27:34.849Z,10.10
2023-04-15T05:30:03.820Z,10.00
2023-04-15T05:32:32.291Z,10.00
2023-04-15T05:35:01.211Z,9.90
2023-04-15T05:37:29.687Z,9.90
2023-04-15T05:39:58.506Z,10.00
2023-04-15T05:42:27.034Z,10.20
2023-04-15T05:44:56.219Z,10.30
2023-04-15T05:47:24.790Z,10.40
2023-04-15T05:49:53.596Z,10.50
2023-04-15T05:52:22.012Z,10.60
2023-04-15T05:54:50.818Z,10.60
2023-04-15T05:57:19.217Z,10.70
2023-04-15T05:59:47.945Z,10.70
2023-04-15T06:02:16.599Z,10.70
2023-04-15T06:04:45.506Z,10.80
2023-04-15T06:07:14.152Z,10.70
2023-04-15T06:09:43.027Z,10.50
2023-04-15T06:12:12.239Z,10.50
2023-04-15T06:14:41.470Z,10.40
2023-04-15T06:17:09.992Z,10.70
2023-04-15T06:19:38.738Z,10.80
2023-04-15T06:22:07.540Z,11.10
2023-04-15T06:24:37.182Z,11.00
2023-04-15T06:27:05.658Z,10.80
2023-04-15T06:29:34.338Z,10.80
2023-04-15T06:32:02.991Z,10.90
2023-04-15T06:34:31.933Z,10.80
2023-04-15T06:37:01.424Z,10.80
2023-04-15T06:39:30.116Z,10.60
2023-04-15T06:41:58.685Z,10.60
2023-04-15T06:44:27.429Z,10.50
2023-04-15T06:46:55.887Z,10.50
2023-04-15T06:49:24.579Z,10.40
2023-04-15T06:51:53.057Z,10.50
2023-04-15T06:54:22.550Z,10.50
2023-04-15T06:56:51.665Z,10.50
2023-04-15T06:59:20.406Z,10.50
2023-04-15T07:01:48.873Z,10.60
2023-04-15T07:04:17.859Z,10.60
2023-04-15T07:06:46.294Z,10.60
2023-04-15T07:09:15.397Z,10.60
2023-04-15T07:11:44.094Z,10.60
2023-04-15T07:14:15.450Z,10.60
2023-04-15T07:16:43.957Z,10.50
2023-04-15T07:19:12.910Z,10.60
2023-04-15T07:21:42.024Z,10.70
2023-04-15T07:24:10.821Z,10.70
2023-04-15T07:26:39.699Z,10.70
2023-04-15T07:29:08.445Z,10.60
2023-04-15T07:31:37.216Z,10.70
2023-04-15T07:34:07.798Z,10.60
2023-04-15T07:36:36.869Z,10.70
2023-04-15T07:39:06.066Z,10.50
2023-04-15T07:41:34.991Z,10.70
2023-04-15T07:44:04.066Z,10.80
2023-04-15T07:46:32.560Z,10.80
2023-04-15T07:49:01.559Z,10.70
2023-04-15T07:51:30.728Z,10.70
2023-04-15T07:53:59.605Z,10.70
2023-04-15T07:56:28.560Z,10.80
2023-04-15T07:58:57.343Z,10.80
2023-04-15T08:01:25.887Z,10.80
2023-04-15T08:03:55.449Z,10.70
2023-04-15T08:06:24.502Z,10.70
2023-04-15T08:08:54.652Z,10.80
2023-04-15T08:11:24.499Z,10.80
2023-04-15T08:13:53.320Z,10.90
2023-04-15T08:16:27.021Z,10.90
2023-04-15T08:18:57.844Z,10.90
2023-04-15T08:21:27.721Z,10.80
2023-04-15T08:23:56.637Z,10.90
2023-04-15T08:26:25.190Z,11.00
2023-04-15T08:28:54.022Z,11.00
2023-04-15T08:31:22.749Z,11.10
2023-04-15T08:33:52.549Z,11.20
2023-04-15T08:36:21.207Z,11.30
2023-04-15T08:38:49.992Z,11.20
2023-04-15T08:41:24.176Z,11.20
2023-04-15T08:43:54.847Z,11.20
2023-04-15T08:46:23.977Z,11.20
2023-04-15T08:48:56.483Z,11.40
2023-04-15T08:51:25.236Z,11.50
2023-04-15T08:53:54.065Z,11.70
2023-04-15T08:56:29.331Z,11.60
2023-04-15T08:58:58.842Z,11.90
2023-04-15T09:01:27.471Z,12.10
2023-04-15T09:03:57.684Z,12.20
2023-04-15T09:06:27.210Z,12.30
2023-04-15T09:08:56.291Z,12.40
2023-04-15T09:11:24.860Z,12.70
2023-04-15T09:13:53.598Z,12.60
2023-04-15T09:16:22.315Z,12.40
2023-04-15T09:18:51.447Z,12.60
2023-04-15T09:21:20.434Z,12.70
2023-04-15T09:23:58.068Z,12.80
2023-04-15T09:26:38.018Z,12.90
2023-04-15T09:29:08.284Z,12.80
2023-04-15T09:31:37.799Z,13.00
2023-04-15T09:34:07.060Z,13.00
2023-04-15T09:36:49.752Z,13.30
2023-04-15T09:39:20.150Z,13.50
2023-04-15T09:42:05.456Z,13.30
2023-04-15T09:44:34.546Z,13.50
2023-04-15T09:47:03.033Z,13.80
2023-04-15T10:22:08.096Z,14.50
2023-04-15T10:24:38.932Z,14.70
2023-04-15T10:27:08.078Z,14.50
2023-04-15T10:29:37.694Z,14.50
2023-04-15T11:00:18.163Z,14.70
2023-04-15T11:35:43.051Z,15.70
2023-04-15T11:38:16.608Z,14.70
2023-04-15T11:40:47.150Z,14.70
2023-04-15T11:43:23.303Z,14.30
2023-04-15T11:45:52.804Z,13.20
2023-04-15T11:48:24.424Z,12.20
2023-04-15T11:50:58.141Z,11.70
2023-04-15T11:53:35.751Z,11.40
2023-04-15T11:56:03.482Z,11.30
2023-04-15T11:58:30.701Z,10.90
2023-04-15T12:01:00.139Z,10.90
2023-04-15T12:03:30.157Z,10.80
2023-04-15T12:06:08.005Z,10.80
2023-04-15T12:08:54.183Z,10.80
2023-04-15T12:11:32.463Z,10.80
2023-04-15T12:14:08.308Z,10.70
2023-04-15T12:16:49.149Z,10.70
2023-04-15T12:19:22.759Z,10.80
2023-04-15T12:21:51.298Z,10.80
2023-04-15T12:24:22.907Z,10.80
2023-04-15T12:26:57.296Z,10.90
2023-04-15T12:29:29.131Z,11.10
2023-04-15T12:32:06.139Z,11.10
2023-04-15T12:34:36.840Z,11.20
2023-04-15T12:37:07.843Z,11.50
2023-04-15T12:39:39.947Z,11.50
2023-04-15T12:42:07.975Z,11.50
2023-04-15T12:44:36.780Z,11.40
2023-04-15T12:47:04.674Z,11.30
2023-04-15T12:49:32.929Z,11.70
2023-04-15T12:52:03.293Z,11.90
2023-04-15T12:54:31.892Z,11.70
2023-04-15T12:57:00.986Z,11.50
2023-04-15T12:59:29.220Z,11.50
2023-04-15T13:01:57.251Z,11.40
2023-04-15T13:04:24.988Z,11.40
2023-04-15T13:06:52.551Z,11.30
2023-04-15T13:09:19.840Z,11.40
2023-04-15T13:11:50.031Z,11.10
2023-04-15T13:14:17.426Z,11.20
2023-04-15T13:16:44.956Z,11.00
2023-04-15T13:19:12.263Z,11.20
2023-04-15T13:21:39.803Z,11.40
2023-04-15T13:24:07.501Z,11.70
2023-04-15T13:26:35.337Z,11.70
2023-04-15T13:29:02.552Z,11.60
2023-04-15T13:31:30.083Z,11.60
2023-04-15T13:33:57.810Z,11.70
2023-04-15T13:36:26.431Z,12.00
2023-04-15T13:38:53.878Z,12.10
2023-04-15T13:41:21.478Z,12.00
2023-04-15T13:43:48.663Z,11.80
2023-04-15T13:46:16.700Z,11.60
2023-04-15T13:48:44.343Z,11.40
2023-04-15T13:51:11.902Z,11.10
2023-04-15T13:53:39.823Z,11.10
2023-04-15T13:56:08.546Z,10.90
2023-04-15T13:58:37.076Z,10.90
2023-04-15T14:01:06.328Z,10.80
2023-04-15T14:03:38.178Z,10.80
2023-04-15T14:06:07.270Z,11.00
2023-04-15T14:08:34.686Z,11.20
2023-04-15T14:11:02.246Z,11.10
2023-04-15T14:13:29.479Z,11.10
2023-04-15T14:15:57.277Z,11.00
2023-04-15T14:18:24.534Z,11.00
2023-04-15T14:20:52.136Z,10.90
2023-04-15T14:23:19.793Z,10.80
2023-04-15T14:25:48.265Z,10.80
2023-04-15T14:28:16.188Z,10.80
2023-04-15T14:30:43.868Z,10.90
2023-04-15T14:33:11.242Z,10.80
2023-04-15T14:35:39.212Z,10.80
2023-04-15T14:38:10.459Z,10.90
2023-04-15T14:40:38.018Z,10.90
2023-04-15T14:43:05.277Z,11.00
2023-04-15T14:45:32.798Z,11.10
2023-04-15T14:48:00.414Z,11.00
2023-04-15T14:50:28.254Z,11.00
2023-04-15T14:52:55.520Z,11.20
2023-04-15T14:55:23.078Z,11.20
2023-04-15T14:57:50.782Z,11.10
2023-04-15T15:00:18.406Z,11.20
2023-04-15T15:02:47.586Z,11.30
2023-04-15T15:05:16.669Z,11.30
2023-04-15T15:07:49.928Z,11.40
2023-04-15T15:10:17.499Z,11.40
2023-04-15T15:13:06.874Z,11.50
2023-04-15T15:15:35.901Z,11.40
2023-04-15T15:18:03.495Z,11.20
2023-04-15T15:20:31.760Z,11.20
2023-04-15T15:22:59.217Z,11.20
2023-04-15T15:25:27.169Z,11.20
2023-04-15T15:27:54.737Z,11.30
2023-04-15T15:30:22.672Z,11.20
2023-04-15T15:32:50.130Z,11.20
2023-04-15T15:35:17.829Z,11.20
2023-04-15T15:37:45.853Z,11.10
2023-04-15T15:40:13.696Z,11.10
2023-04-15T15:42:41.886Z,11.10
2023-04-15T15:45:09.733Z,11.00
2023-04-15T15:47:37.042Z,11.00
2023-04-15T15:50:06.166Z,11.00
2023-04-15T15:52:33.834Z,11.00
2023-04-15T15:55:02.108Z,11.30
2023-04-15T15:57:29.382Z,11.50
2023-04-15T16:00:10.555Z,11.60
2023-04-15T16:03:02.407Z,11.60
2023-04-15T16:05:27.997Z,11.50
2023-04-15T16:07:55.609Z,11.30
2023-04-15T16:10:23.212Z,11.20
2023-04-15T16:12:50.446Z,11.00
2023-04-15T16:15:18.064Z,10.80
2023-04-15T16:17:45.583Z,10.90
2023-04-15T16:20:13.300Z,10.80
2023-04-15T16:22:40.667Z,10.60
2023-04-15T16:25:08.574Z,10.50
2023-04-15T16:27:50.361Z,10.50
2023-04-15T16:30:24.447Z,10.50
2023-04-15T16:32:52.041Z,10.50
2023-04-15T16:35:20.036Z,10.40
2023-04-15T16:37:47.350Z,10.40
2023-04-15T16:40:15.400Z,10.40
2023-04-15T16:42:43.797Z,10.40
2023-04-15T16:45:11.724Z,10.40
2023-04-15T16:47:39.220Z,10.50
2023-04-15T16:50:07.446Z,10.50
2023-04-15T16:52:34.694Z,10.60
2023-04-15T16:55:03.253Z,10.60
2023-04-15T16:58:00.934Z,10.60
2023-04-15T17:00:18.322Z,10.50
2023-04-15T17:02:46.088Z,10.50
2023-04-15T17:05:14.030Z,10.30
2023-04-15T17:07:41.320Z,10.30
2023-04-15T17:10:10.188Z,10.20
2023-04-15T17:12:37.645Z,10.10
2023-04-15T17:15:06.107Z,9.90
2023-04-15T17:17:39.733Z,10.00
2023-04-15T17:20:08.045Z,9.90
2023-04-15T17:22:36.087Z,9.90
2023-04-15T17:25:04.660Z,10.00
2023-04-15T17:27:36.494Z,9.90
2023-04-15T17:30:11.029Z,9.80
2023-04-15T17:32:58.395Z,9.80
2023-04-15T17:35:46.218Z,9.70
2023-04-15T17:38:34.631Z,9.70
2023-04-15T17:41:22.892Z,9.60
2023-04-15T17:44:10.418Z,9.60
2023-04-15T17:46:58.151Z,9.50
2023-04-15T17:49:45.981Z,9.50
2023-04-15T17:52:33.735Z,9.60
2023-04-15T17:55:22.257Z,9.60
2023-04-15T17:58:09.876Z,9.60
2023-04-15T18:00:57.391Z,9.70
2023-04-15T18:03:45.454Z,9.70
2023-04-15T18:06:32.887Z,9.80
2023-04-15T18:09:20.996Z,9.90
2023-04-15T18:12:09.055Z,10.00
2023-04-15T18:14:56.987Z,10.20
2023-04-15T18:17:44.740Z,10.20
2023-04-15T18:20:16.197Z,10.20
2023-04-15T18:22:45.571Z,10.10
2023-04-15T18:25:13.064Z,10.00
2023-04-15T18:27:40.407Z,9.90
2023-04-15T18:30:10.296Z,9.80
2023-04-15T18:32:38.755Z,9.80
2023-04-15T18:35:07.402Z,9.70
2023-04-15T18:37:34.858Z,9.80
2023-04-15T18:40:02.715Z,9.70
2023-04-15T18:42:30.637Z,9.70
2023-04-15T18:44:58.691Z,9.70
2023-04-15T18:47:27.655Z,9.70
2023-04-15T18:49:55.600Z,9.70
2023-04-15T18:52:22.840Z,9.70
2023-04-15T18:54:50.714Z,9.80
2023-04-15T18:57:23.050Z,9.70
2023-04-15T18:59:54.724Z,9.70
2023-04-15T19:02:22.302Z,9.70
2023-04-15T19:04:50.604Z,9.70
2023-04-15T19:07:18.192Z,9.70
2023-04-15T19:09:46.485Z,9.70
2023-04-15T19:12:13.732Z,9.70
2023-04-15T19:14:41.794Z,9.70
2023-04-15T19:17:09.398Z,9.70
2023-04-15T19:19:37.218Z,9.70
2023-04-15T19:22:04.990Z,9.70
2023-04-15T19:24:33.344Z,9.60
2023-04-15T19:27:01.800Z,9.60
2023-04-15T19:29:29.506Z,9.60
2023-04-15T19:31:56.856Z,9.60
2023-04-15T19:34:25.117Z,9.60
2023-04-15T19:36:52.574Z,9.70
2023-04-15T19:39:20.111Z,9.60
2023-04-15T19:41:48.126Z,9.50
2023-04-15T19:44:15.867Z,9.50
2023-04-15T19:46:44.825Z,9.40
2023-04-15T19:49:12.649Z,9.20
2023-04-15T19:51:40.041Z,9.30
2023-04-15T19:54:07.844Z,9.20
2023-04-15T19:56:35.121Z,9.20
2023-04-15T19:59:06.082Z,9.10
2023-04-15T20:01:33.637Z,9.20
2023-04-15T20:04:03.476Z,9.30
2023-04-15T20:06:31.445Z,9.40
2023-04-15T20:08:59.422Z,9.40
2023-04-15T20:12:46.906Z,9.60
2023-04-15T20:14:17.975Z,9.40
2023-04-15T20:16:45.382Z,9.20
2023-04-15T20:19:15.459Z,9.10
2023-04-15T20:21:42.901Z,9.00
2023-04-15T20:24:11.130Z,9.10
2023-04-15T20:26:38.423Z,8.80
2023-04-15T20:29:06.186Z,8.70
2023-04-15T20:31:34.037Z,8.70
2023-04-15T20:34:01.603Z,8.70
2023-04-15T20:36:28.958Z,8.60
2023-04-15T20:38:56.514Z,8.50
2023-04-15T20:41:23.826Z,8.40
2023-04-15T20:43:51.365Z,8.50
2023-04-15T20:46:21.370Z,8.40
2023-04-15T20:48:49.332Z,8.40
2023-04-15T20:51:16.624Z,8.40
2023-04-15T20:53:44.300Z,8.40
2023-04-15T20:56:11.820Z,8.20
2023-04-15T20:58:39.380Z,8.30
2023-04-15T21:01:07.988Z,8.40
2023-04-15T21:03:35.711Z,8.50
2023-04-15T21:06:03.144Z,8.60
2023-04-15T21:08:31.577Z,8.70
2023-04-15T21:10:59.043Z,8.70
2023-04-15T21:13:26.650Z,8.80
2023-04-15T21:15:54.420Z,8.70
2023-04-15T21:18:23.022Z,8.80
2023-04-15T21:21:16.592Z,8.90
2023-04-15T21:23:44.198Z,8.80
2023-04-15T21:26:11.492Z,8.90
2023-04-15T21:28:39.309Z,9.00
2023-04-15T21:31:07.832Z,9.00
2023-04-15T21:33:35.258Z,9.00
2023-04-15T21:36:02.403Z,8.90
2023-04-15T21:38:29.871Z,8.80
2023-04-15T21:40:57.975Z,8.80
2023-04-15T21:43:25.828Z,8.80
2023-04-15T21:46:23.442Z,8.90
2023-04-15T21:48:40.920Z,8.70
2023-04-15T21:51:08.365Z,8.60
2023-04-15T21:53:36.004Z,8.60
2023-04-15T21:56:03.427Z,8.70
2023-04-15T21:58:31.678Z,8.80
2023-04-15T22:01:00.382Z,8.70
2023-04-15T22:03:33.826Z,8.60
2023-04-15T22:06:04.777Z,8.60
2023-04-15T22:08:38.654Z,8.40
2023-04-15T22:11:26.613Z,8.30
2023-04-15T22:13:54.597Z,8.30
2023-04-15T22:16:22.201Z,8.20
2023-04-15T22:18:49.745Z,8.10
2023-04-15T22:21:17.143Z,8.10
2023-04-15T22:23:48.494Z,8.10
2023-04-15T22:26:15.900Z,8.00
2023-04-15T22:28:43.511Z,8.00
2023-04-15T22:31:10.874Z,8.00
2023-04-15T22:33:38.972Z,8.00
2023-04-15T22:36:06.431Z,8.00
2023-04-15T22:38:34.057Z,8.10
2023-04-15T22:41:01.415Z,8.10
2023-04-15T22:43:29.040Z,8.10
2023-04-15T22:45:56.881Z,8.00
2023-04-15T22:48:24.675Z,8.00
2023-04-15T22:50:51.926Z,8.10
2023-04-15T22:53:20.113Z,8.10
2023-04-15T22:55:48.514Z,8.10
2023-04-15T22:58:17.116Z,8.00
2023-04-15T23:00:44.757Z,8.00
2023-04-15T23:03:12.664Z,8.00
2023-04-15T23:05:41.302Z,8.00
2023-04-15T23:08:09.100Z,8.00
2023-04-15T23:10:36.370Z,8.00
2023-04-15T23:13:03.910Z,7.90
2023-04-15T23:15:31.120Z,8.00
2023-04-15T23:18:00.462Z,7.90
2023-04-15T23:20:27.847Z,7.90
2023-04-15T23:22:55.486Z,7.90
2023-04-15T23:25:22.956Z,7.90
2023-04-15T23:27:50.454Z,7.90
2023-04-15T23:30:17.723Z,8.00
2023-04-15T23:32:45.814Z,8.10
2023-04-15T23:35:13.113Z,8.20
2023-04-15T23:37:40.619Z,8.30
2023-04-15T23:40:08.498Z,8.40
2023-04-15T23:42:36.160Z,8.40
2023-04-15T23:45:03.568Z,8.50
2023-04-15T23:47:31.710Z,8.40
2023-04-15T23:49:58.960Z,8.50
2023-04-15T23:52:26.667Z,8.60
2023-04-15T23:54:53.942Z,8.60
2023-04-15T23:57:21.608Z,8.60
2023-04-15T23:59:48.973Z,8.70
